sensor_id;sensor_type;location;lat;lon;timestamp;pressure;altitude;pressure_sealevel;temperature;humidity
40948;BME280;49382;-25.924;28.194;2023-05-28T00:00:31;85597.98;;;16.66;45.51
40948;BME280;49382;-25.924;28.194;2023-05-28T00:02:56;85598.20;;;16.77;45.32
40948;BME280;49382;-25.924;28.194;2023-05-28T00:05:21;85600.06;;;16.67;45.04
40948;BME280;49382;-25.924;28.194;2023-05-28T00:07:46;85601.15;;;15.81;46.91
40948;BME280;49382;-25.924;28.194;2023-05-28T00:10:11;85595.98;;;16.01;46.93
40948;BME280;49382;-25.924;28.194;2023-05-28T00:12:36;85594.27;;;16.15;47.18
40948;BME280;49382;-25.924;28.194;2023-05-28T00:15:01;85590.80;;;15.90;46.54
40948;BME280;49382;-25.924;28.194;2023-05-28T00:17:27;85592.18;;;15.91;46.70
40948;BME280;49382;-25.924;28.194;2023-05-28T00:19:52;85591.24;;;16.20;46.94
40948;BME280;49382;-25.924;28.194;2023-05-28T00:22:17;85585.77;;;15.95;46.54
40948;BME280;49382;-25.924;28.194;2023-05-28T00:24:43;85583.57;;;16.49;45.64
40948;BME280;49382;-25.924;28.194;2023-05-28T00:27:09;85583.15;;;16.77;44.94
40948;BME280;49382;-25.924;28.194;2023-05-28T00:29:34;85582.61;;;16.39;45.45
40948;BME280;49382;-25.924;28.194;2023-05-28T00:32:00;85578.82;;;16.32;45.67
40948;BME280;49382;-25.924;28.194;2023-05-28T00:34:26;85577.10;;;15.89;46.82
40948;BME280;49382;-25.924;28.194;2023-05-28T00:36:51;85571.58;;;15.92;46.92
40948;BME280;49382;-25.924;28.194;2023-05-28T00:39:16;85569.36;;;16.05;46.85
40948;BME280;49382;-25.924;28.194;2023-05-28T00:41:41;85570.36;;;15.85;46.50
40948;BME280;49382;-25.924;28.194;2023-05-28T00:44:06;85563.59;;;15.63;47.28
40948;BME280;49382;-25.924;28.194;2023-05-28T00:46:31;85563.06;;;15.96;46.68
40948;BME280;49382;-25.924;28.194;2023-05-28T00:48:57;85563.87;;;15.99;46.19
40948;BME280;49382;-25.924;28.194;2023-05-28T00:51:22;85564.33;;;16.47;45.39
40948;BME280;49382;-25.924;28.194;2023-05-28T00:53:48;85561.13;;;16.53;45.15
40948;BME280;49382;-25.924;28.194;2023-05-28T00:56:14;85560.03;;;16.51;44.83
40948;BME280;49382;-25.924;28.194;2023-05-28T00:58:39;85560.29;;;16.53;45.17
40948;BME280;49382;-25.924;28.194;2023-05-28T01:01:05;85554.47;;;16.47;45.38
40948;BME280;49382;-25.924;28.194;2023-05-28T01:03:30;85555.87;;;16.37;45.33
40948;BME280;49382;-25.924;28.194;2023-05-28T01:05:55;85553.00;;;16.75;44.82
40948;BME280;49382;-25.924;28.194;2023-05-28T01:08:21;85550.57;;;16.42;45.26
40948;BME280;49382;-25.924;28.194;2023-05-28T01:10:47;85550.75;;;15.71;46.63
40948;BME280;49382;-25.924;28.194;2023-05-28T01:13:12;85548.68;;;16.19;45.72
40948;BME280;49382;-25.924;28.194;2023-05-28T01:15:37;85546.37;;;16.45;45.35
40948;BME280;49382;-25.924;28.194;2023-05-28T01:18:02;85547.28;;;16.74;44.70
40948;BME280;49382;-25.924;28.194;2023-05-28T01:20:28;85545.20;;;16.37;45.51
40948;BME280;49382;-25.924;28.194;2023-05-28T01:22:56;85544.12;;;16.30;45.05
40948;BME280;49382;-25.924;28.194;2023-05-28T01:25:18;85543.07;;;15.98;45.91
40948;BME280;49382;-25.924;28.194;2023-05-28T01:27:43;85537.13;;;16.31;45.73
40948;BME280;49382;-25.924;28.194;2023-05-28T01:30:09;85537.57;;;16.07;45.21
40948;BME280;49382;-25.924;28.194;2023-05-28T01:32:34;85535.10;;;16.44;45.25
40948;BME280;49382;-25.924;28.194;2023-05-28T01:34:59;85534.52;;;16.50;45.42
40948;BME280;49382;-25.924;28.194;2023-05-28T01:37:26;85531.18;;;16.11;45.62
40948;BME280;49382;-25.924;28.194;2023-05-28T01:39:51;85533.63;;;16.13;45.52
40948;BME280;49382;-25.924;28.194;2023-05-28T01:42:15;85535.41;;;15.81;46.71
40948;BME280;49382;-25.924;28.194;2023-05-28T01:44:42;85534.27;;;16.02;46.34
40948;BME280;49382;-25.924;28.194;2023-05-28T01:47:06;85533.49;;;15.75;46.22
40948;BME280;49382;-25.924;28.194;2023-05-28T01:49:32;85530.71;;;15.47;46.95
40948;BME280;49382;-25.924;28.194;2023-05-28T01:51:57;85528.68;;;15.91;46.01
40948;BME280;49382;-25.924;28.194;2023-05-28T01:54:23;85528.99;;;16.04;45.60
40948;BME280;49382;-25.924;28.194;2023-05-28T01:56:49;85528.91;;;16.02;45.18
40948;BME280;49382;-25.924;28.194;2023-05-28T01:59:14;85532.98;;;15.73;46.10
40948;BME280;49382;-25.924;28.194;2023-05-28T02:01:39;85531.33;;;16.15;45.93
40948;BME280;49382;-25.924;28.194;2023-05-28T02:04:04;85530.54;;;16.52;44.74
40948;BME280;49382;-25.924;28.194;2023-05-28T02:06:31;85531.46;;;16.72;44.26
40948;BME280;49382;-25.924;28.194;2023-05-28T02:08:55;85530.58;;;16.28;45.07
40948;BME280;49382;-25.924;28.194;2023-05-28T02:11:20;85530.67;;;16.13;45.39
40948;BME280;49382;-25.924;28.194;2023-05-28T02:13:45;85528.70;;;15.77;44.94
40948;BME280;49382;-25.924;28.194;2023-05-28T02:16:11;85531.09;;;15.69;45.18
40948;BME280;49382;-25.924;28.194;2023-05-28T02:18:36;85530.11;;;15.90;45.29
40948;BME280;49382;-25.924;28.194;2023-05-28T02:21:01;85534.06;;;15.89;45.36
40948;BME280;49382;-25.924;28.194;2023-05-28T02:23:27;85528.63;;;16.12;45.69
40948;BME280;49382;-25.924;28.194;2023-05-28T02:25:52;85529.56;;;15.88;45.97
40948;BME280;49382;-25.924;28.194;2023-05-28T02:28:17;85525.28;;;16.04;44.70
40948;BME280;49382;-25.924;28.194;2023-05-28T02:30:42;85523.72;;;16.45;44.97
40948;BME280;49382;-25.924;28.194;2023-05-28T02:33:07;85522.75;;;15.75;45.41
40948;BME280;49382;-25.924;28.194;2023-05-28T02:35:32;85520.93;;;15.52;45.90
40948;BME280;49382;-25.924;28.194;2023-05-28T02:37:57;85516.20;;;15.63;45.47
40948;BME280;49382;-25.924;28.194;2023-05-28T02:40:22;85516.40;;;16.38;44.95
40948;BME280;49382;-25.924;28.194;2023-05-28T02:42:48;85522.67;;;15.94;45.47
40948;BME280;49382;-25.924;28.194;2023-05-28T02:45:13;85522.06;;;16.42;45.70
40948;BME280;49382;-25.924;28.194;2023-05-28T02:47:38;85516.88;;;16.15;45.95
40948;BME280;49382;-25.924;28.194;2023-05-28T02:50:04;85508.06;;;14.95;48.67
40948;BME280;49382;-25.924;28.194;2023-05-28T02:52:28;85505.76;;;15.36;48.76
40948;BME280;49382;-25.924;28.194;2023-05-28T02:54:54;85510.16;;;14.91;49.15
40948;BME280;49382;-25.924;28.194;2023-05-28T02:57:19;85516.08;;;14.99;49.68
40948;BME280;49382;-25.924;28.194;2023-05-28T02:59:44;85515.70;;;15.30;48.68
40948;BME280;49382;-25.924;28.194;2023-05-28T03:02:10;85515.15;;;14.74;50.29
40948;BME280;49382;-25.924;28.194;2023-05-28T03:04:37;85510.79;;;15.44;48.56
40948;BME280;49382;-25.924;28.194;2023-05-28T03:07:00;85511.91;;;16.02;46.82
40948;BME280;49382;-25.924;28.194;2023-05-28T03:09:25;85520.04;;;15.79;47.83
40948;BME280;49382;-25.924;28.194;2023-05-28T03:11:51;85519.00;;;16.05;46.72
40948;BME280;49382;-25.924;28.194;2023-05-28T03:14:16;85513.67;;;16.10;46.37
40948;BME280;49382;-25.924;28.194;2023-05-28T03:16:41;85517.29;;;16.81;44.82
40948;BME280;49382;-25.924;28.194;2023-05-28T03:19:06;85518.15;;;16.77;45.18
40948;BME280;49382;-25.924;28.194;2023-05-28T03:21:31;85516.28;;;16.33;45.96
40948;BME280;49382;-25.924;28.194;2023-05-28T03:23:56;85512.34;;;16.54;44.91
40948;BME280;49382;-25.924;28.194;2023-05-28T03:26:22;85513.06;;;16.33;45.77
40948;BME280;49382;-25.924;28.194;2023-05-28T03:28:46;85507.44;;;16.34;46.07
40948;BME280;49382;-25.924;28.194;2023-05-28T03:31:12;85503.81;;;15.77;46.71
40948;BME280;49382;-25.924;28.194;2023-05-28T03:33:37;85504.23;;;15.91;46.90
40948;BME280;49382;-25.924;28.194;2023-05-28T03:36:03;85500.07;;;16.07;46.25
40948;BME280;49382;-25.924;28.194;2023-05-28T03:38:28;85498.66;;;16.81;45.20
40948;BME280;49382;-25.924;28.194;2023-05-28T03:40:54;85494.25;;;15.45;47.17
40948;BME280;49382;-25.924;28.194;2023-05-28T03:43:19;85495.11;;;16.54;46.29
40948;BME280;49382;-25.924;28.194;2023-05-28T03:45:44;85498.84;;;15.77;47.22
40948;BME280;49382;-25.924;28.194;2023-05-28T03:48:09;85503.10;;;16.57;45.24
40948;BME280;49382;-25.924;28.194;2023-05-28T03:50:35;85511.41;;;17.17;44.29
40948;BME280;49382;-25.924;28.194;2023-05-28T03:53:00;85512.92;;;15.42;47.33
40948;BME280;49382;-25.924;28.194;2023-05-28T03:55:25;85511.95;;;15.34;48.57
40948;BME280;49382;-25.924;28.194;2023-05-28T03:57:50;85517.69;;;15.26;48.49
40948;BME280;49382;-25.924;28.194;2023-05-28T04:00:16;85522.28;;;15.98;47.63
40948;BME280;49382;-25.924;28.194;2023-05-28T04:02:41;85524.16;;;16.60;46.34
40948;BME280;49382;-25.924;28.194;2023-05-28T04:05:07;85523.72;;;16.04;46.88
40948;BME280;49382;-25.924;28.194;2023-05-28T04:07:32;85532.45;;;15.76;47.96
40948;BME280;49382;-25.924;28.194;2023-05-28T04:09:57;85534.43;;;16.23;46.98
40948;BME280;49382;-25.924;28.194;2023-05-28T04:12:22;85536.36;;;14.65;50.33
40948;BME280;49382;-25.924;28.194;2023-05-28T04:14:47;85536.04;;;16.49;47.00
40948;BME280;49382;-25.924;28.194;2023-05-28T04:17:12;85536.08;;;15.48;47.57
40948;BME280;49382;-25.924;28.194;2023-05-28T04:19:39;85534.90;;;15.87;47.02
40948;BME280;49382;-25.924;28.194;2023-05-28T04:22:03;85534.06;;;15.53;48.27
40948;BME280;49382;-25.924;28.194;2023-05-28T04:24:28;85530.46;;;16.06;46.82
40948;BME280;49382;-25.924;28.194;2023-05-28T04:26:54;85529.68;;;15.25;48.07
40948;BME280;49382;-25.924;28.194;2023-05-28T04:29:19;85531.39;;;15.49;48.61
40948;BME280;49382;-25.924;28.194;2023-05-28T04:31:44;85538.04;;;15.68;48.48
40948;BME280;49382;-25.924;28.194;2023-05-28T04:34:10;85547.00;;;14.52;50.61
40948;BME280;49382;-25.924;28.194;2023-05-28T04:36:35;85544.34;;;15.56;48.62
40948;BME280;49382;-25.924;28.194;2023-05-28T04:39:00;85548.06;;;15.52;48.43
40948;BME280;49382;-25.924;28.194;2023-05-28T04:41:26;85553.64;;;15.42;48.67
40948;BME280;49382;-25.924;28.194;2023-05-28T04:43:51;85555.05;;;15.76;48.12
40948;BME280;49382;-25.924;28.194;2023-05-28T04:46:16;85555.90;;;15.74;48.23
40948;BME280;49382;-25.924;28.194;2023-05-28T04:48:41;85562.37;;;14.36;50.58
40948;BME280;49382;-25.924;28.194;2023-05-28T04:51:06;85557.48;;;15.35;49.01
40948;BME280;49382;-25.924;28.194;2023-05-28T04:53:32;85567.94;;;15.08;49.45
40948;BME280;49382;-25.924;28.194;2023-05-28T04:55:57;85570.23;;;14.49;50.28
40948;BME280;49382;-25.924;28.194;2023-05-28T04:58:22;85571.60;;;15.89;47.81
40948;BME280;49382;-25.924;28.194;2023-05-28T05:00:47;85575.51;;;14.76;50.13
40948;BME280;49382;-25.924;28.194;2023-05-28T05:03:13;85572.67;;;15.54;48.44
40948;BME280;49382;-25.924;28.194;2023-05-28T05:05:38;85573.58;;;15.59;48.42
40948;BME280;49382;-25.924;28.194;2023-05-28T05:08:04;85575.66;;;14.65;50.31
40948;BME280;49382;-25.924;28.194;2023-05-28T05:10:30;85578.43;;;14.89;49.65
40948;BME280;49382;-25.924;28.194;2023-05-28T05:12:55;85576.55;;;14.38;51.59
40948;BME280;49382;-25.924;28.194;2023-05-28T05:15:21;85573.41;;;14.83;50.82
40948;BME280;49382;-25.924;28.194;2023-05-28T05:17:46;85580.01;;;14.64;50.21
40948;BME280;49382;-25.924;28.194;2023-05-28T05:20:12;85581.58;;;15.90;48.09
40948;BME280;49382;-25.924;28.194;2023-05-28T05:22:37;85584.73;;;15.11;49.06
40948;BME280;49382;-25.924;28.194;2023-05-28T05:25:02;85583.24;;;15.28;48.86
40948;BME280;49382;-25.924;28.194;2023-05-28T05:27:27;85584.98;;;15.16;48.85
40948;BME280;49382;-25.924;28.194;2023-05-28T05:29:52;85585.94;;;14.98;49.98
40948;BME280;49382;-25.924;28.194;2023-05-28T05:32:18;85582.17;;;15.57;48.58
40948;BME280;49382;-25.924;28.194;2023-05-28T05:34:43;85587.15;;;15.42;47.56
40948;BME280;49382;-25.924;28.194;2023-05-28T05:37:08;85593.70;;;15.79;48.05
40948;BME280;49382;-25.924;28.194;2023-05-28T05:39:33;85597.97;;;16.10;46.63
40948;BME280;49382;-25.924;28.194;2023-05-28T05:41:58;85596.60;;;15.91;47.65
40948;BME280;49382;-25.924;28.194;2023-05-28T05:44:23;85603.75;;;16.20;46.32
40948;BME280;49382;-25.924;28.194;2023-05-28T05:46:48;85604.79;;;16.69;45.41
40948;BME280;49382;-25.924;28.194;2023-05-28T05:49:14;85606.19;;;15.88;47.09
40948;BME280;49382;-25.924;28.194;2023-05-28T05:51:39;85608.94;;;16.91;45.23
40948;BME280;49382;-25.924;28.194;2023-05-28T05:54:05;85614.05;;;15.61;46.89
40948;BME280;49382;-25.924;28.194;2023-05-28T05:56:30;85611.05;;;16.63;45.59
40948;BME280;49382;-25.924;28.194;2023-05-28T05:58:56;85613.31;;;15.92;46.60
40948;BME280;49382;-25.924;28.194;2023-05-28T06:01:21;85612.57;;;16.83;45.53
40948;BME280;49382;-25.924;28.194;2023-05-28T06:03:45;85613.11;;;15.67;47.08
40948;BME280;49382;-25.924;28.194;2023-05-28T06:06:10;85619.94;;;14.54;50.62
40948;BME280;49382;-25.924;28.194;2023-05-28T06:08:36;85620.23;;;15.93;48.29
40948;BME280;49382;-25.924;28.194;2023-05-28T06:11:00;85619.43;;;15.09;49.34
40948;BME280;49382;-25.924;28.194;2023-05-28T06:13:25;85619.14;;;16.14;46.69
40948;BME280;49382;-25.924;28.194;2023-05-28T06:15:50;85624.51;;;15.42;47.71
40948;BME280;49382;-25.924;28.194;2023-05-28T06:18:15;85621.54;;;16.22;45.88
40948;BME280;49382;-25.924;28.194;2023-05-28T06:20:41;85627.25;;;16.13;46.94
40948;BME280;49382;-25.924;28.194;2023-05-28T06:23:06;85629.81;;;16.17;46.47
40948;BME280;49382;-25.924;28.194;2023-05-28T06:25:32;85633.63;;;15.94;47.07
40948;BME280;49382;-25.924;28.194;2023-05-28T06:27:57;85637.04;;;15.31;47.96
40948;BME280;49382;-25.924;28.194;2023-05-28T06:30:22;85634.17;;;16.64;45.75
40948;BME280;49382;-25.924;28.194;2023-05-28T06:32:47;85634.90;;;15.85;46.93
40948;BME280;49382;-25.924;28.194;2023-05-28T06:35:13;85634.10;;;15.98;46.70
40948;BME280;49382;-25.924;28.194;2023-05-28T06:37:38;85639.61;;;16.13;46.62
40948;BME280;49382;-25.924;28.194;2023-05-28T06:40:04;85643.30;;;17.13;45.14
40948;BME280;49382;-25.924;28.194;2023-05-28T06:42:28;85643.26;;;16.58;45.72
40948;BME280;49382;-25.924;28.194;2023-05-28T06:44:54;85643.98;;;16.47;45.84
40948;BME280;49382;-25.924;28.194;2023-05-28T06:47:19;85647.44;;;16.84;45.31
40948;BME280;49382;-25.924;28.194;2023-05-28T06:49:44;85650.84;;;17.75;43.37
40948;BME280;49382;-25.924;28.194;2023-05-28T06:52:10;85651.04;;;17.91;43.24
40948;BME280;49382;-25.924;28.194;2023-05-28T06:54:35;85648.96;;;17.17;44.14
40948;BME280;49382;-25.924;28.194;2023-05-28T06:57:00;85648.45;;;16.05;46.78
40948;BME280;49382;-25.924;28.194;2023-05-28T06:59:25;85650.01;;;16.95;44.65
40948;BME280;49382;-25.924;28.194;2023-05-28T07:01:51;85651.24;;;15.69;47.42
40948;BME280;49382;-25.924;28.194;2023-05-28T07:04:16;85659.04;;;17.16;44.82
40948;BME280;49382;-25.924;28.194;2023-05-28T07:06:41;85658.41;;;17.07;44.27
40948;BME280;49382;-25.924;28.194;2023-05-28T07:09:06;85658.62;;;17.01;44.30
40948;BME280;49382;-25.924;28.194;2023-05-28T07:11:31;85662.35;;;18.30;41.96
40948;BME280;49382;-25.924;28.194;2023-05-28T07:13:56;85664.53;;;19.46;40.09
40948;BME280;49382;-25.924;28.194;2023-05-28T07:16:21;85657.42;;;17.43;43.16
40948;BME280;49382;-25.924;28.194;2023-05-28T07:18:46;85661.97;;;22.57;35.25
40948;BME280;49382;-25.924;28.194;2023-05-28T07:21:12;85667.14;;;24.32;30.65
40948;BME280;49382;-25.924;28.194;2023-05-28T07:23:37;85665.06;;;24.30;30.25
40948;BME280;49382;-25.924;28.194;2023-05-28T07:26:02;85668.86;;;31.65;22.46
40948;BME280;49382;-25.924;28.194;2023-05-28T07:28:27;85663.83;;;25.40;27.72
40948;BME280;49382;-25.924;28.194;2023-05-28T07:30:54;85659.90;;;22.04;32.44
40948;BME280;49382;-25.924;28.194;2023-05-28T07:33:19;85659.17;;;18.89;37.86
40948;BME280;49382;-25.924;28.194;2023-05-28T07:35:45;85662.52;;;20.71;36.28
40948;BME280;49382;-25.924;28.194;2023-05-28T07:38:11;85658.91;;;22.00;34.35
40948;BME280;49382;-25.924;28.194;2023-05-28T07:40:37;85656.46;;;22.19;33.61
40948;BME280;49382;-25.924;28.194;2023-05-28T07:43:02;85661.03;;;20.19;36.42
40948;BME280;49382;-25.924;28.194;2023-05-28T07:45:28;85659.37;;;21.70;34.43
40948;BME280;49382;-25.924;28.194;2023-05-28T07:47:53;85653.94;;;22.16;33.75
40948;BME280;49382;-25.924;28.194;2023-05-28T07:50:19;85656.35;;;22.95;32.28
40948;BME280;49382;-25.924;28.194;2023-05-28T07:52:45;85665.52;;;23.25;31.31
40948;BME280;49382;-25.924;28.194;2023-05-28T07:55:11;85667.08;;;30.57;24.64
40948;BME280;49382;-25.924;28.194;2023-05-28T07:57:37;85653.42;;;28.20;24.59
40948;BME280;49382;-25.924;28.194;2023-05-28T08:00:03;85657.75;;;29.90;22.66
40948;BME280;49382;-25.924;28.194;2023-05-28T08:02:28;85655.39;;;33.41;18.90
40948;BME280;49382;-25.924;28.194;2023-05-28T08:04:54;85655.19;;;37.51;15.56
40948;BME280;49382;-25.924;28.194;2023-05-28T08:07:19;85647.70;;;40.11;13.81
40948;BME280;49382;-25.924;28.194;2023-05-28T08:09:45;85643.34;;;40.73;12.71
40948;BME280;49382;-25.924;28.194;2023-05-28T08:12:11;85637.30;;;41.57;12.36
40948;BME280;49382;-25.924;28.194;2023-05-28T08:14:37;85633.88;;;42.18;12.12
40948;BME280;49382;-25.924;28.194;2023-05-28T08:17:02;85630.14;;;41.02;12.25
40948;BME280;49382;-25.924;28.194;2023-05-28T08:19:28;85626.43;;;42.20;11.62
40948;BME280;49382;-25.924;28.194;2023-05-28T08:21:54;85622.02;;;44.33;11.00
40948;BME280;49382;-25.924;28.194;2023-05-28T08:24:19;85622.31;;;41.79;12.28
40948;BME280;49382;-25.924;28.194;2023-05-28T08:26:44;85621.47;;;42.50;10.92
40948;BME280;49382;-25.924;28.194;2023-05-28T08:29:10;85621.27;;;44.60;10.65
40948;BME280;49382;-25.924;28.194;2023-05-28T08:31:36;85621.22;;;45.37;9.44
40948;BME280;49382;-25.924;28.194;2023-05-28T08:34:01;85613.30;;;44.77;9.73
40948;BME280;49382;-25.924;28.194;2023-05-28T08:36:27;85612.25;;;44.65;9.73
40948;BME280;49382;-25.924;28.194;2023-05-28T08:38:53;85607.99;;;44.71;10.08
40948;BME280;49382;-25.924;28.194;2023-05-28T08:41:18;85607.11;;;46.52;9.35
40948;BME280;49382;-25.924;28.194;2023-05-28T08:43:44;85600.46;;;44.07;10.31
40948;BME280;49382;-25.924;28.194;2023-05-28T08:46:09;85605.78;;;47.39;8.61
40948;BME280;49382;-25.924;28.194;2023-05-28T08:48:35;85597.55;;;46.48;8.63
40948;BME280;49382;-25.924;28.194;2023-05-28T08:51:01;85599.98;;;48.12;8.35
40948;BME280;49382;-25.924;28.194;2023-05-28T08:53:27;85595.51;;;46.66;8.80
40948;BME280;49382;-25.924;28.194;2023-05-28T08:55:52;85593.49;;;47.83;8.22
40948;BME280;49382;-25.924;28.194;2023-05-28T08:58:18;85593.52;;;47.87;7.73
40948;BME280;49382;-25.924;28.194;2023-05-28T09:00:43;85588.19;;;45.59;9.71
40948;BME280;49382;-25.924;28.194;2023-05-28T09:03:09;85591.38;;;45.03;9.50
40948;BME280;49382;-25.924;28.194;2023-05-28T09:05:36;85584.11;;;44.63;9.94
40948;BME280;49382;-25.924;28.194;2023-05-28T09:08:00;85564.53;;;40.01;12.37
40948;BME280;49382;-25.924;28.194;2023-05-28T09:10:25;85556.09;;;34.76;14.83
40948;BME280;49382;-25.924;28.194;2023-05-28T09:12:57;85549.40;;;31.48;18.69
40948;BME280;49382;-25.924;28.194;2023-05-28T09:15:22;85554.16;;;29.08;21.74
40948;BME280;49382;-25.924;28.194;2023-05-28T09:17:42;85544.92;;;28.98;22.84
40948;BME280;49382;-25.924;28.194;2023-05-28T09:20:12;85543.00;;;27.10;24.66
40948;BME280;49382;-25.924;28.194;2023-05-28T09:22:33;85536.95;;;26.89;25.68
40948;BME280;49382;-25.924;28.194;2023-05-28T09:25:00;85531.98;;;25.97;26.67
40948;BME280;49382;-25.924;28.194;2023-05-28T09:27:24;85531.81;;;25.31;27.26
40948;BME280;49382;-25.924;28.194;2023-05-28T09:29:50;85527.11;;;24.58;29.54
40948;BME280;49382;-25.924;28.194;2023-05-28T09:32:19;85531.41;;;24.57;31.71
40948;BME280;49382;-25.924;28.194;2023-05-28T09:34:42;85523.83;;;24.25;28.91
40948;BME280;49382;-25.924;28.194;2023-05-28T09:37:06;85517.85;;;25.20;28.99
40948;BME280;49382;-25.924;28.194;2023-05-28T09:39:32;85517.07;;;24.00;30.03
40948;BME280;49382;-25.924;28.194;2023-05-28T09:42:01;85513.87;;;24.86;31.66
40948;BME280;49382;-25.924;28.194;2023-05-28T09:44:22;85511.19;;;22.80;32.86
40948;BME280;49382;-25.924;28.194;2023-05-28T09:46:47;85509.75;;;24.29;30.96
40948;BME280;49382;-25.924;28.194;2023-05-28T09:49:13;85506.56;;;23.99;31.47
40948;BME280;49382;-25.924;28.194;2023-05-28T09:51:41;85502.66;;;23.51;32.01
40948;BME280;49382;-25.924;28.194;2023-05-28T09:54:05;85499.63;;;23.09;32.01
40948;BME280;49382;-25.924;28.194;2023-05-28T09:56:31;85496.66;;;23.43;32.52
40948;BME280;49382;-25.924;28.194;2023-05-28T09:58:57;85493.23;;;22.52;33.03
40948;BME280;49382;-25.924;28.194;2023-05-28T10:01:25;85487.83;;;22.13;34.51
40948;BME280;49382;-25.924;28.194;2023-05-28T10:03:50;85485.32;;;23.79;30.53
40948;BME280;49382;-25.924;28.194;2023-05-28T10:06:17;85483.84;;;23.30;32.99
40948;BME280;49382;-25.924;28.194;2023-05-28T10:08:39;85483.97;;;22.37;33.04
40948;BME280;49382;-25.924;28.194;2023-05-28T10:11:06;85485.07;;;24.13;31.95
40948;BME280;49382;-25.924;28.194;2023-05-28T10:13:31;85481.63;;;24.07;32.04
40948;BME280;49382;-25.924;28.194;2023-05-28T10:15:56;85481.96;;;23.36;31.66
40948;BME280;49382;-25.924;28.194;2023-05-28T10:18:21;85477.73;;;22.69;31.75
40948;BME280;49382;-25.924;28.194;2023-05-28T10:20:47;85477.51;;;23.78;30.42
40948;BME280;49382;-25.924;28.194;2023-05-28T10:23:13;85474.50;;;24.14;30.38
40948;BME280;49382;-25.924;28.194;2023-05-28T10:25:38;85473.06;;;23.33;33.02
40948;BME280;49382;-25.924;28.194;2023-05-28T10:28:05;85467.56;;;23.41;32.21
40948;BME280;49382;-25.924;28.194;2023-05-28T10:30:35;85463.12;;;22.81;34.37
40948;BME280;49382;-25.924;28.194;2023-05-28T10:32:56;85453.84;;;22.92;32.97
40948;BME280;49382;-25.924;28.194;2023-05-28T10:35:22;85451.26;;;23.30;31.57
40948;BME280;49382;-25.924;28.194;2023-05-28T10:37:47;85444.61;;;23.63;30.68
40948;BME280;49382;-25.924;28.194;2023-05-28T10:40:22;85440.73;;;23.42;32.04
40948;BME280;49382;-25.924;28.194;2023-05-28T10:42:40;85436.75;;;24.14;30.07
40948;BME280;49382;-25.924;28.194;2023-05-28T10:45:07;85428.52;;;23.12;31.01
40948;BME280;49382;-25.924;28.194;2023-05-28T10:47:32;85422.29;;;23.46;31.68
40948;BME280;49382;-25.924;28.194;2023-05-28T10:50:00;85424.64;;;24.01;30.68
40948;BME280;49382;-25.924;28.194;2023-05-28T10:52:22;85419.34;;;23.94;29.47
40948;BME280;49382;-25.924;28.194;2023-05-28T10:54:52;85415.45;;;22.94;31.70
40948;BME280;49382;-25.924;28.194;2023-05-28T10:57:14;85410.76;;;22.47;31.69
40948;BME280;49382;-25.924;28.194;2023-05-28T10:59:43;85411.94;;;23.65;29.61
40948;BME280;49382;-25.924;28.194;2023-05-28T11:02:06;85410.23;;;22.70;30.79
40948;BME280;49382;-25.924;28.194;2023-05-28T11:04:34;85405.03;;;23.10;29.67
40948;BME280;49382;-25.924;28.194;2023-05-28T11:06:57;85402.68;;;22.76;30.19
40948;BME280;49382;-25.924;28.194;2023-05-28T11:09:23;85402.19;;;23.68;28.68
40948;BME280;49382;-25.924;28.194;2023-05-28T11:11:48;85398.70;;;23.01;28.95
40948;BME280;49382;-25.924;28.194;2023-05-28T11:14:16;85394.96;;;23.61;28.40
40948;BME280;49382;-25.924;28.194;2023-05-28T11:16:39;85392.26;;;23.81;28.64
40948;BME280;49382;-25.924;28.194;2023-05-28T11:19:06;85388.80;;;23.49;28.58
40948;BME280;49382;-25.924;28.194;2023-05-28T11:21:31;85385.20;;;23.91;27.55
40948;BME280;49382;-25.924;28.194;2023-05-28T11:24:01;85382.16;;;22.66;28.70
40948;BME280;49382;-25.924;28.194;2023-05-28T11:26:22;85377.12;;;22.97;29.13
40948;BME280;49382;-25.924;28.194;2023-05-28T11:28:48;85378.48;;;23.75;28.43
40948;BME280;49382;-25.924;28.194;2023-05-28T11:31:14;85375.33;;;23.10;28.61
40948;BME280;49382;-25.924;28.194;2023-05-28T11:33:40;85374.56;;;22.40;28.94
40948;BME280;49382;-25.924;28.194;2023-05-28T11:36:06;85368.19;;;22.30;29.71
40948;BME280;49382;-25.924;28.194;2023-05-28T11:38:31;85364.58;;;22.84;28.75
40948;BME280;49382;-25.924;28.194;2023-05-28T11:41:01;85358.85;;;23.12;28.55
40948;BME280;49382;-25.924;28.194;2023-05-28T11:43:25;85351.50;;;21.89;30.45
40948;BME280;49382;-25.924;28.194;2023-05-28T11:45:49;85354.19;;;23.80;28.40
40948;BME280;49382;-25.924;28.194;2023-05-28T11:48:15;85353.18;;;23.47;29.90
40948;BME280;49382;-25.924;28.194;2023-05-28T11:50:40;85350.27;;;23.14;28.51
40948;BME280;49382;-25.924;28.194;2023-05-28T11:53:06;85350.29;;;22.82;30.22
40948;BME280;49382;-25.924;28.194;2023-05-28T11:55:32;85346.49;;;22.62;29.84
40948;BME280;49382;-25.924;28.194;2023-05-28T11:57:58;85343.42;;;22.33;29.92
40948;BME280;49382;-25.924;28.194;2023-05-28T12:00:29;85339.61;;;21.93;29.94
40948;BME280;49382;-25.924;28.194;2023-05-28T12:02:51;85332.87;;;22.19;29.85
40948;BME280;49382;-25.924;28.194;2023-05-28T12:05:16;85331.87;;;23.55;28.81
40948;BME280;49382;-25.924;28.194;2023-05-28T12:07:45;85332.00;;;23.02;29.47
40948;BME280;49382;-25.924;28.194;2023-05-28T12:10:08;85331.28;;;22.35;29.02
40948;BME280;49382;-25.924;28.194;2023-05-28T12:12:33;85325.42;;;22.54;28.25
40948;BME280;49382;-25.924;28.194;2023-05-28T12:14:58;85327.10;;;22.86;28.66
40948;BME280;49382;-25.924;28.194;2023-05-28T12:17:24;85327.54;;;23.31;27.43
40948;BME280;49382;-25.924;28.194;2023-05-28T12:19:50;85324.62;;;23.17;27.33
40948;BME280;49382;-25.924;28.194;2023-05-28T12:22:16;85322.97;;;22.94;28.27
40948;BME280;49382;-25.924;28.194;2023-05-28T12:24:47;85322.29;;;23.26;27.20
40948;BME280;49382;-25.924;28.194;2023-05-28T12:27:07;85317.99;;;22.57;28.04
40948;BME280;49382;-25.924;28.194;2023-05-28T12:29:33;85313.43;;;22.30;27.99